createdAt,value
2024-01-12T00:00:16.938Z,103710.28
2024-01-12T00:05:13.976Z,103713.81
2024-01-12T00:10:11.036Z,103705.09
2024-01-12T00:15:08.064Z,103705.97
2024-01-12T00:20:08.053Z,103702.56
2024-01-12T00:25:05.325Z,103698.22
2024-01-12T00:30:02.252Z,103714.84
2024-01-12T00:34:59.312Z,103698.22
2024-01-12T00:39:56.095Z,103678.06
2024-01-12T00:44:52.918Z,103696.81
2024-01-12T00:49:50.030Z,103664.28
2024-01-12T00:54:47.127Z,103626.53
2024-01-12T00:59:44.056Z,103691.06
2024-01-12T01:04:40.861Z,103685.75
2024-01-12T01:09:37.660Z,103682.34
2024-01-12T01:14:34.698Z,103685.88
2024-01-12T01:19:32.695Z,103690.38
2024-01-12T01:24:30.768Z,103692.13
2024-01-12T01:29:27.889Z,103666.44
2024-01-12T01:34:25.146Z,103694.59
2024-01-12T01:39:21.993Z,103649.00
2024-01-12T01:44:18.898Z,103676.63
2024-01-12T01:49:15.874Z,103670.56
2024-01-12T01:54:13.130Z,103673.16
2024-01-12T01:59:09.932Z,103674.13
2024-01-12T02:04:08.106Z,103661.97
2024-01-12T02:09:06.028Z,103669.00
2024-01-12T02:14:08.653Z,103654.66
2024-01-12T02:19:05.847Z,103673.34
2024-01-12T02:24:03.966Z,103675.63
2024-01-12T02:29:02.342Z,103645.72
2024-01-12T02:33:59.301Z,103668.81
2024-01-12T02:38:56.910Z,103669.69
2024-01-12T02:43:53.783Z,103637.81
2024-01-12T02:48:50.648Z,103654.91
2024-01-12T02:53:47.865Z,103659.31
2024-01-12T02:58:44.696Z,103656.69
2024-01-12T03:03:41.485Z,103650.81
2024-01-12T03:08:38.336Z,103620.44
2024-01-12T03:13:36.817Z,103649.84
2024-01-12T03:18:34.184Z,103651.72
2024-01-12T03:23:31.182Z,103637.72
2024-01-12T03:28:28.226Z,103619.09
2024-01-12T03:33:25.322Z,103642.88
2024-01-12T03:38:22.399Z,103633.31
2024-01-12T03:43:19.254Z,103639.47
2024-01-12T03:48:16.451Z,103641.13
2024-01-12T03:53:13.483Z,103639.47
2024-01-12T03:58:10.360Z,103646.41
2024-01-12T04:03:07.464Z,103644.66
2024-01-12T04:08:05.537Z,103642.13
2024-01-12T04:13:02.366Z,103618.25
2024-01-12T04:17:59.355Z,103638.78
2024-01-12T04:22:56.187Z,103643.13
2024-01-12T04:27:53.031Z,103644.91
2024-01-12T04:32:49.907Z,103643.03
2024-01-12T04:37:46.758Z,103614.63
2024-01-12T04:42:43.533Z,103611.19
2024-01-12T04:47:40.366Z,103641.22
2024-01-12T04:52:37.264Z,103622.84
2024-01-12T04:57:34.092Z,103607.78
2024-01-12T05:02:30.942Z,103622.22
2024-01-12T05:07:27.732Z,103624.75
2024-01-12T05:12:24.921Z,103600.94
2024-01-12T05:17:21.935Z,103589.59
2024-01-12T05:22:18.740Z,103623.91
2024-01-12T05:27:15.546Z,103614.44
2024-01-12T05:32:12.372Z,103615.44
2024-01-12T05:37:09.135Z,103608.59
2024-01-12T05:42:06.041Z,103589.09
2024-01-12T05:47:02.894Z,103612.03
2024-01-12T05:51:59.751Z,103606.59
2024-01-12T05:56:56.815Z,103607.38
2024-01-12T06:01:53.763Z,103602.94
2024-01-12T06:06:50.647Z,103612.66
2024-01-12T06:11:47.512Z,103596.84
2024-01-12T06:16:44.306Z,103599.53
2024-01-12T06:21:43.180Z,103594.34
2024-01-12T06:26:43.111Z,103598.78
2024-01-12T06:31:39.986Z,103592.97
2024-01-12T06:36:43.326Z,103576.69
2024-01-12T06:41:48.454Z,103601.44
2024-01-12T06:46:45.865Z,103596.94
2024-01-12T06:51:42.774Z,103603.81
2024-01-12T06:56:40.085Z,103616.88
2024-01-12T07:01:36.896Z,103603.97
2024-01-12T07:06:33.881Z,103597.84
2024-01-12T07:11:31.067Z,103610.03
2024-01-12T07:16:28.600Z,103581.09
2024-01-12T07:21:25.375Z,103598.00
2024-01-12T07:26:22.569Z,103591.06
2024-01-12T07:31:20.524Z,103594.44
2024-01-12T07:36:17.398Z,103605.69
2024-01-12T07:41:14.197Z,103607.50
2024-01-12T07:46:17.763Z,103618.78
2024-01-12T07:51:14.663Z,103574.78
2024-01-12T07:56:12.230Z,103562.34
2024-01-12T08:01:16.233Z,103618.00
2024-01-12T08:06:13.408Z,103570.50
2024-01-12T08:11:23.225Z,103604.19
2024-01-12T08:16:27.352Z,103606.75
2024-01-12T08:21:24.290Z,103606.50
2024-01-12T08:26:22.640Z,103612.13
2024-01-12T08:31:19.505Z,103610.50
2024-01-12T08:36:17.488Z,103616.66
2024-01-12T08:41:14.428Z,103616.66
2024-01-12T08:46:11.202Z,103603.75
2024-01-12T08:51:10.481Z,103600.13
2024-01-12T08:56:09.599Z,103610.75
2024-01-12T09:01:06.559Z,103609.13
2024-01-12T09:06:03.620Z,103608.25
2024-01-12T09:11:02.573Z,103613.44
2024-01-12T09:15:59.321Z,103592.38
2024-01-12T09:20:56.164Z,103608.31
2024-01-12T09:25:55.736Z,103611.19
2024-01-12T09:30:53.128Z,103602.59
2024-01-12T09:35:50.084Z,103600.81
2024-01-12T09:40:48.056Z,103616.59
2024-01-12T09:45:46.511Z,103604.59
2024-01-12T09:50:45.210Z,103588.44
2024-01-12T09:55:42.129Z,103612.28
2024-01-12T10:00:41.410Z,103603.75
2024-01-12T10:05:38.874Z,103616.06
2024-01-12T10:10:35.852Z,103624.94
2024-01-12T10:15:39.382Z,103622.25
2024-01-12T10:20:39.783Z,103607.22
2024-01-12T10:25:37.182Z,103596.69
2024-01-12T10:30:34.468Z,103613.53
2024-01-12T10:35:31.427Z,103613.75
2024-01-12T10:40:30.767Z,103620.84
2024-01-12T10:45:29.268Z,103591.81
2024-01-12T10:50:26.355Z,103614.97
2024-01-12T10:55:23.954Z,103612.31
2024-01-12T11:00:21.462Z,103614.31
2024-01-12T11:05:22.420Z,103601.34
2024-01-12T11:10:21.242Z,103574.13
2024-01-12T11:15:18.189Z,103569.16
2024-01-12T11:20:20.162Z,103576.63
2024-01-12T11:25:20.798Z,103579.34
2024-01-12T11:30:19.493Z,103564.69
2024-01-12T11:35:21.146Z,103568.25
2024-01-12T11:40:18.168Z,103569.00
2024-01-12T11:45:15.269Z,103562.38
2024-01-12T11:50:18.828Z,103562.47
2024-01-12T11:55:18.569Z,103551.22
2024-01-12T12:00:15.964Z,103520.63
2024-01-12T12:05:13.249Z,103545.41
2024-01-12T12:10:11.086Z,103511.16
2024-01-12T12:15:16.722Z,103537.50
2024-01-12T12:20:14.084Z,103531.59
2024-01-12T12:25:15.897Z,103494.69
2024-01-12T12:30:15.723Z,103488.41
2024-01-12T12:35:14.354Z,103513.22
2024-01-12T12:40:12.878Z,103506.25
2024-01-12T12:45:11.056Z,103500.31
2024-01-12T12:50:13.711Z,103476.97
2024-01-12T12:55:10.642Z,103477.09
2024-01-12T13:00:12.055Z,103476.25
2024-01-12T13:05:10.869Z,103475.31
2024-01-12T13:10:08.061Z,103468.25
2024-01-12T13:15:05.483Z,103456.97
2024-01-12T13:20:04.714Z,103428.00
2024-01-12T13:25:01.524Z,103422.81
2024-01-12T13:30:01.266Z,103443.94
2024-01-12T13:34:58.416Z,103387.78
2024-01-12T13:39:55.342Z,103419.69
2024-01-12T13:44:52.122Z,103406.81
2024-01-12T13:49:49.694Z,103377.78
2024-01-12T13:54:47.728Z,103378.06
2024-01-12T13:59:44.658Z,103381.88
2024-01-12T14:04:42.719Z,103387.28
2024-01-12T14:09:40.541Z,103354.75
2024-01-12T14:14:37.413Z,103347.03
2024-01-12T14:19:34.366Z,103344.34
2024-01-12T14:24:31.307Z,103345.09
2024-01-12T14:29:28.211Z,103347.84
2024-01-12T14:34:25.219Z,103331.97
2024-01-12T14:39:22.039Z,103364.25
2024-01-12T14:44:19.199Z,103359.88
2024-01-12T14:49:16.306Z,103342.84
2024-01-12T14:54:13.366Z,103363.19
2024-01-12T14:59:10.219Z,103341.00
2024-01-12T15:04:18.413Z,103352.09
2024-01-12T15:09:20.167Z,103369.66
2024-01-12T15:14:17.654Z,103370.53
2024-01-12T15:19:14.780Z,103367.94
2024-01-12T15:24:13.019Z,103363.59
2024-01-12T15:29:10.052Z,103349.59
2024-01-12T15:34:07.079Z,103363.59
2024-01-12T15:39:04.027Z,103337.06
2024-01-12T15:44:01.881Z,103346.63
2024-01-12T15:48:58.772Z,103348.19
2024-01-12T15:53:58.250Z,103368.28
2024-01-12T15:58:56.968Z,103368.19
2024-01-12T16:03:53.948Z,103366.53
2024-01-12T16:08:52.181Z,103365.50
2024-01-12T16:13:50.004Z,103366.41
2024-01-12T16:18:56.831Z,103350.56
2024-01-12T16:24:01.799Z,103331.19
2024-01-12T16:28:58.718Z,103320.72
2024-01-12T16:33:55.604Z,103348.91
2024-01-12T16:38:52.568Z,103350.56
2024-01-12T16:43:49.405Z,103352.31
2024-01-12T16:48:46.790Z,103344.31
2024-01-12T16:53:43.885Z,103295.94
2024-01-12T16:58:40.700Z,103343.47
2024-01-12T17:03:37.664Z,103340.63
2024-01-12T17:08:36.573Z,103340.66
2024-01-12T17:13:35.710Z,103336.31
2024-01-12T17:18:33.727Z,103338.06
2024-01-12T17:23:36.556Z,103338.03
2024-01-12T17:28:33.595Z,103334.53
2024-01-12T17:33:33.875Z,103330.81
2024-01-12T17:38:30.722Z,103329.13
2024-01-12T17:43:27.598Z,103332.56
2024-01-12T17:48:24.478Z,103325.63
2024-01-12T17:53:23.440Z,103295.66
2024-01-12T17:58:20.629Z,103288.59
2024-01-12T18:03:17.510Z,103299.16
2024-01-12T18:08:14.503Z,103309.75
2024-01-12T18:13:11.434Z,103310.63
2024-01-12T18:18:08.366Z,103306.31
2024-01-12T18:23:06.505Z,103280.81
2024-01-12T18:28:03.329Z,103292.38
2024-01-12T18:33:00.589Z,103297.72
2024-01-12T18:37:57.421Z,103280.31
2024-01-12T18:42:54.187Z,103250.56
2024-01-12T18:47:51.076Z,103227.59
2024-01-12T18:52:47.980Z,103272.53
2024-01-12T18:57:44.832Z,103262.88
2024-01-12T19:02:41.638Z,103207.50
2024-01-12T19:07:38.398Z,103229.63
2024-01-12T19:12:35.167Z,103262.88
2024-01-12T19:17:32.494Z,103259.38
2024-01-12T19:22:30.362Z,103270.72
2024-01-12T19:27:27.196Z,103261.25
2024-01-12T19:32:24.255Z,103253.31
2024-01-12T19:37:21.097Z,103250.75
2024-01-12T19:42:19.602Z,103218.38
2024-01-12T19:47:16.630Z,103220.09
2024-01-12T19:52:13.753Z,103250.00
2024-01-12T19:57:10.760Z,103242.06
2024-01-12T20:02:07.665Z,103250.75
2024-01-12T20:07:04.700Z,103241.19
2024-01-12T20:12:01.554Z,103242.06
2024-01-12T20:16:58.380Z,103229.16
2024-01-12T20:22:00.418Z,103216.03
2024-01-12T20:26:57.657Z,103224.84
2024-01-12T20:31:54.448Z,103210.06
2024-01-12T20:36:52.670Z,103183.75
2024-01-12T20:41:49.546Z,103205.78
2024-01-12T20:46:47.390Z,103174.97
2024-01-12T20:51:44.169Z,103195.31
2024-01-12T20:56:41.043Z,103195.28
2024-01-12T21:01:38.086Z,103209.19
2024-01-12T21:06:35.030Z,103203.91
2024-01-12T21:11:31.921Z,103198.66
2024-01-12T21:16:28.984Z,103189.97
2024-01-12T21:21:25.789Z,103193.47
2024-01-12T21:26:23.673Z,103174.16
2024-01-12T21:31:20.514Z,103184.25
2024-01-12T21:36:17.512Z,103179.09
2024-01-12T21:41:14.407Z,103173.91
2024-01-12T21:46:11.285Z,103170.31
2024-01-12T21:51:08.125Z,103164.13
2024-01-12T21:56:05.249Z,103166.00
2024-01-12T22:01:02.089Z,103166.09
2024-01-12T22:05:58.936Z,103159.00
2024-01-12T22:10:55.788Z,103156.59
2024-01-12T22:15:53.026Z,103118.78
2024-01-12T22:20:49.865Z,103149.69
2024-01-12T22:25:46.704Z,103128.88
2024-01-12T22:30:43.550Z,103114.59
2024-01-12T22:35:41.841Z,103119.72
2024-01-12T22:40:38.641Z,103149.59
2024-01-12T22:45:35.451Z,103135.69
2024-01-12T22:50:32.510Z,103096.38
2024-01-12T22:55:30.436Z,103089.28
2024-01-12T23:00:27.634Z,103115.72
2024-01-12T23:05:25.447Z,103110.53
2024-01-12T23:10:22.417Z,103116.47
2024-01-12T23:15:20.181Z,103090.25
2024-01-12T23:20:19.341Z,103099.16
2024-01-12T23:25:17.358Z,103092.22
2024-01-12T23:30:14.894Z,103047.28
2024-01-12T23:35:12.213Z,103085.16
2024-01-12T23:40:11.057Z,103078.16
2024-01-12T23:45:08.461Z,103072.97
2024-01-12T23:50:05.886Z,103070.31
2024-01-12T23:55:02.694Z,103067.81
2024-01-12T23:59:59.722Z,103060.75
